createdAt,value
2018-09-04T00:00:40.016Z,6.90
2018-09-04T00:03:08.185Z,7.00
2018-09-04T00:05:36.219Z,7.40
2018-09-04T00:08:04.450Z,6.43
2018-09-04T00:10:32.683Z,6.43
2018-09-04T00:13:00.906Z,6.73
2018-09-04T00:15:29.074Z,7.17
2018-09-04T00:17:57.171Z,7.20
2018-09-04T00:20:25.242Z,7.67
2018-09-04T00:22:53.411Z,7.23
2018-09-04T00:25:21.464Z,7.27
2018-09-04T00:27:49.576Z,7.50
2018-09-04T00:30:17.745Z,7.27
2018-09-04T00:32:45.900Z,7.77
2018-09-04T00:35:14.049Z,7.57
2018-09-04T00:37:42.157Z,6.73
2018-09-04T00:40:10.478Z,7.33
2018-09-04T00:42:38.805Z,7.13
2018-09-04T00:45:06.961Z,7.57
2018-09-04T00:47:34.994Z,7.30
2018-09-04T00:50:03.301Z,7.57
2018-09-04T00:52:31.524Z,7.90
2018-09-04T00:54:59.724Z,8.00
2018-09-04T00:57:27.804Z,7.93
2018-09-04T00:59:55.965Z,6.90
2018-09-04T01:02:24.083Z,7.77
2018-09-04T01:04:52.104Z,7.17
2018-09-04T01:07:20.095Z,7.83
2018-09-04T01:09:48.105Z,7.40
2018-09-04T01:12:16.244Z,7.43
2018-09-04T01:14:44.416Z,7.70
2018-09-04T01:17:12.464Z,7.53
2018-09-04T01:19:40.673Z,7.13
2018-09-04T01:22:08.738Z,7.97
2018-09-04T01:24:36.723Z,7.27
2018-09-04T01:27:04.846Z,8.20
2018-09-04T01:29:32.803Z,6.87
2018-09-04T01:32:00.767Z,7.17
2018-09-04T01:34:28.808Z,8.17
2018-09-04T01:36:56.822Z,7.13
2018-09-04T01:39:24.914Z,7.20
2018-09-04T01:41:53.003Z,7.87
2018-09-04T01:44:20.990Z,6.83
2018-09-04T01:46:49.049Z,7.47
2018-09-04T01:49:17.101Z,7.50
2018-09-04T01:51:45.164Z,8.00
2018-09-04T01:54:13.272Z,6.53
2018-09-04T01:56:41.466Z,7.90
2018-09-04T01:59:09.755Z,8.33
2018-09-04T02:01:37.921Z,7.67
2018-09-04T02:04:06.300Z,8.00
2018-09-04T02:06:34.340Z,7.33
2018-09-04T02:09:02.613Z,8.07
2018-09-04T02:11:30.704Z,8.23
2018-09-04T02:13:59.001Z,8.40
2018-09-04T02:16:27.215Z,7.23
2018-09-04T02:18:55.213Z,7.77
2018-09-04T02:21:23.313Z,8.20
2018-09-04T02:23:51.354Z,7.93
2018-09-04T02:26:19.437Z,7.60
2018-09-04T02:28:47.507Z,8.33
2018-09-04T02:31:15.560Z,9.57
2018-09-04T02:33:44.890Z,8.70
2018-09-04T02:36:13.014Z,8.60
2018-09-04T02:38:41.029Z,8.47
2018-09-04T02:41:09.208Z,9.10
2018-09-04T02:43:37.271Z,9.37
2018-09-04T02:46:05.723Z,9.23
2018-09-04T02:48:34.012Z,10.97
2018-09-04T02:51:02.130Z,11.70
2018-09-04T02:53:30.267Z,11.83
2018-09-04T02:55:58.762Z,12.07
2018-09-04T02:58:26.895Z,12.20
2018-09-04T03:00:55.230Z,12.60
2018-09-04T03:03:23.351Z,12.70
2018-09-04T03:05:51.537Z,12.83
2018-09-04T03:08:19.625Z,12.40
2018-09-04T03:10:47.742Z,12.47
2018-09-04T03:13:15.762Z,12.33
2018-09-04T03:15:43.981Z,10.93
2018-09-04T03:18:12.280Z,11.47
2018-09-04T03:20:40.530Z,11.70
2018-09-04T03:23:08.764Z,11.57
2018-09-04T03:25:37.017Z,11.33
2018-09-04T03:28:05.243Z,10.87
2018-09-04T03:30:33.512Z,10.20
2018-09-04T03:33:01.490Z,10.73
2018-09-04T03:35:29.537Z,10.30
2018-09-04T03:37:57.565Z,9.93
2018-09-04T03:40:25.749Z,9.30
2018-09-04T03:42:53.924Z,9.60
2018-09-04T03:45:22.021Z,9.03
2018-09-04T03:47:50.412Z,8.97
2018-09-04T03:50:18.559Z,9.47
2018-09-04T03:52:46.857Z,9.27
2018-09-04T03:55:15.388Z,8.83
2018-09-04T03:57:43.643Z,9.63
2018-09-04T04:00:12.280Z,10.67
2018-09-04T04:02:40.844Z,9.30
2018-09-04T04:05:09.413Z,8.77
2018-09-04T04:07:37.737Z,9.03
2018-09-04T04:10:06.149Z,10.17
2018-09-04T04:12:34.486Z,11.23
2018-09-04T04:15:03.031Z,10.77
2018-09-04T04:17:31.398Z,12.00
2018-09-04T04:19:59.721Z,11.93
2018-09-04T04:22:28.045Z,12.87
2018-09-04T04:24:56.368Z,12.17
2018-09-04T04:27:24.674Z,12.40
2018-09-04T04:29:52.977Z,11.33
2018-09-04T04:32:21.473Z,11.00
2018-09-04T04:34:49.739Z,10.70
2018-09-04T04:37:18.033Z,10.63
2018-09-04T04:39:46.345Z,11.47
2018-09-04T04:42:14.639Z,12.87
2018-09-04T04:44:42.931Z,9.97
2018-09-04T04:47:11.273Z,12.37
2018-09-04T04:49:39.526Z,12.07
2018-09-04T04:52:07.761Z,10.63
2018-09-04T04:55:00.865Z,11.73
2018-09-04T04:57:38.168Z,11.03
2018-09-04T05:00:09.586Z,10.93
2018-09-04T05:02:37.909Z,11.60
2018-09-04T05:05:06.883Z,11.67
2018-09-04T05:07:35.675Z,11.33
2018-09-04T05:10:04.114Z,11.47
2018-09-04T05:12:32.583Z,11.63
2018-09-04T05:15:00.986Z,12.23
2018-09-04T05:17:29.461Z,12.57
2018-09-04T05:19:57.844Z,12.93
2018-09-04T05:22:26.167Z,11.73
2018-09-04T05:24:54.856Z,13.27
2018-09-04T05:27:23.320Z,12.33
2018-09-04T05:29:51.707Z,13.73
2018-09-04T05:32:25.239Z,14.13
2018-09-04T05:34:53.659Z,14.93
2018-09-04T05:37:22.059Z,14.60
2018-09-04T05:39:50.731Z,14.83
2018-09-04T05:42:26.433Z,13.93
2018-09-04T05:44:54.639Z,14.20
2018-09-04T05:47:33.075Z,14.30
2018-09-04T05:50:18.854Z,13.50
2018-09-04T05:52:47.257Z,14.17
2018-09-04T05:55:43.511Z,12.67
2018-09-04T05:58:54.158Z,11.47
2018-09-04T06:01:22.895Z,13.40
2018-09-04T06:03:51.353Z,12.90
2018-09-04T06:06:19.586Z,13.47
2018-09-04T06:08:47.937Z,15.23
2018-09-04T06:11:16.009Z,13.93
2018-09-04T06:13:44.229Z,14.40
2018-09-04T06:16:12.353Z,14.00
2018-09-04T06:18:40.527Z,15.77
2018-09-04T06:21:08.635Z,14.50
2018-09-04T06:23:36.732Z,13.67
2018-09-04T06:26:04.847Z,15.20
2018-09-04T06:28:33.122Z,15.30
2018-09-04T06:31:01.333Z,14.97
2018-09-04T06:33:29.549Z,14.63
2018-09-04T06:35:57.917Z,14.00
2018-09-04T06:38:26.294Z,15.47
2018-09-04T06:40:54.513Z,15.27
2018-09-04T06:43:22.726Z,15.67
2018-09-04T06:45:51.007Z,14.73
2018-09-04T06:48:25.569Z,15.83
2018-09-04T06:51:19.619Z,16.30
2018-09-04T06:53:47.935Z,16.70
2018-09-04T06:56:16.141Z,15.97
2018-09-04T06:58:44.565Z,16.17
2018-09-04T07:01:12.789Z,16.13
2018-09-04T07:03:41.201Z,16.90
2018-09-04T07:06:09.895Z,17.27
2018-09-04T07:08:38.375Z,16.60
2018-09-04T07:11:06.822Z,17.20
2018-09-04T07:13:35.042Z,20.37
2018-09-04T07:16:03.720Z,17.63
2018-09-04T07:18:32.471Z,16.20
2018-09-04T07:21:00.853Z,16.03
2018-09-04T07:23:29.366Z,17.30
2018-09-04T07:25:58.307Z,15.73
2018-09-04T07:28:26.817Z,16.03
2018-09-04T07:30:55.506Z,15.27
2018-09-04T07:33:25.492Z,16.77
2018-09-04T07:35:54.062Z,16.20
2018-09-04T07:38:22.845Z,15.93
2018-09-04T07:40:51.367Z,17.10
2018-09-04T07:43:20.143Z,14.60
2018-09-04T07:45:48.302Z,15.67
2018-09-04T07:48:16.568Z,13.40
2018-09-04T07:50:44.647Z,14.10
2018-09-04T07:53:12.742Z,14.37
2018-09-04T07:55:41.053Z,16.07
2018-09-04T07:58:09.561Z,13.70
2018-09-04T08:00:38.118Z,14.87
2018-09-04T08:03:06.426Z,13.53
2018-09-04T08:05:34.911Z,13.60
2018-09-04T08:08:03.349Z,15.10
2018-09-04T08:10:35.947Z,13.83
2018-09-04T08:13:06.275Z,13.77
2018-09-04T08:15:35.218Z,12.00
2018-09-04T08:18:03.277Z,11.23
2018-09-04T08:20:31.464Z,11.73
2018-09-04T08:22:59.487Z,12.77
2018-09-04T08:25:27.778Z,11.43
2018-09-04T08:27:55.866Z,11.53
2018-09-04T08:30:24.264Z,12.40
2018-09-04T08:32:52.466Z,12.73
2018-09-04T08:35:20.530Z,12.23
2018-09-04T08:37:50.928Z,12.60
2018-09-04T08:40:19.144Z,11.53
2018-09-04T08:42:47.282Z,9.13
2018-09-04T08:45:15.499Z,10.90
2018-09-04T08:47:43.841Z,10.83
2018-09-04T08:50:12.074Z,9.63
2018-09-04T08:52:40.383Z,7.73
2018-09-04T08:55:08.715Z,8.07
2018-09-04T08:57:36.763Z,5.93
2018-09-04T09:00:05.350Z,8.90
2018-09-04T09:02:33.580Z,6.63
2018-09-04T09:05:01.729Z,4.43
2018-09-04T09:07:29.904Z,6.07
2018-09-04T09:09:58.172Z,8.77
2018-09-04T09:12:26.335Z,8.30
2018-09-04T09:14:54.448Z,6.00
2018-09-04T09:17:22.719Z,6.87
2018-09-04T09:19:50.883Z,7.13
2018-09-04T09:22:19.147Z,6.97
2018-09-04T09:24:47.384Z,7.90
2018-09-04T09:27:15.794Z,7.37
2018-09-04T09:29:44.379Z,6.77
2018-09-04T09:32:12.654Z,5.60
2018-09-04T09:34:40.971Z,6.75
2018-09-04T09:37:09.311Z,6.83
2018-09-04T09:39:37.423Z,6.77
2018-09-04T09:42:05.469Z,5.70
2018-09-04T09:44:33.801Z,5.80
2018-09-04T09:47:04.189Z,5.75
2018-09-04T09:49:33.227Z,5.20
2018-09-04T09:52:01.510Z,5.42
2018-09-04T09:54:29.803Z,4.78
2018-09-04T09:56:58.927Z,4.08
2018-09-04T09:59:28.889Z,4.20
2018-09-04T10:02:02.882Z,4.30
2018-09-04T10:04:31.009Z,4.50
2018-09-04T10:06:59.177Z,4.33
2018-09-04T10:09:27.335Z,4.42
2018-09-04T10:11:55.491Z,4.37
2018-09-04T10:14:23.679Z,4.13
2018-09-04T10:16:52.005Z,3.77
2018-09-04T10:19:20.208Z,3.98
2018-09-04T10:21:48.558Z,3.95
2018-09-04T10:24:16.879Z,3.60
2018-09-04T10:26:45.328Z,4.12
2018-09-04T10:29:13.565Z,4.42
2018-09-04T10:31:41.841Z,3.92
2018-09-04T10:34:10.202Z,4.12
2018-09-04T10:36:38.525Z,4.80
2018-09-04T10:39:12.943Z,4.25
2018-09-04T10:41:41.225Z,4.42
2018-09-04T10:44:09.634Z,4.20
2018-09-04T10:46:37.828Z,4.25
2018-09-04T10:49:06.128Z,3.98
2018-09-04T10:51:34.324Z,4.10
2018-09-04T10:54:02.612Z,3.77
2018-09-04T10:56:30.858Z,3.87
2018-09-04T10:58:59.075Z,3.25
2018-09-04T11:01:27.166Z,3.58
2018-09-04T11:03:55.508Z,3.83
2018-09-04T11:06:23.855Z,4.12
2018-09-04T11:08:52.212Z,3.65
2018-09-04T11:11:20.651Z,4.15
2018-09-04T11:13:49.133Z,3.42
2018-09-04T11:16:17.833Z,3.92
2018-09-04T11:18:46.168Z,4.22
2018-09-04T11:21:14.318Z,3.72
2018-09-04T11:23:42.510Z,3.70
2018-09-04T11:26:10.751Z,4.55
2018-09-04T11:28:42.561Z,4.25
2018-09-04T11:31:10.945Z,4.00
2018-09-04T11:33:39.180Z,4.17
2018-09-04T11:36:07.331Z,4.45
2018-09-04T11:38:35.426Z,4.15
2018-09-04T11:41:03.941Z,4.30
2018-09-04T11:43:34.021Z,4.03
2018-09-04T11:46:02.427Z,4.03
2018-09-04T11:48:30.647Z,4.65
2018-09-04T11:50:59.307Z,4.00
2018-09-04T11:53:27.537Z,4.25
2018-09-04T11:55:55.967Z,4.03
2018-09-04T11:58:24.063Z,4.12
2018-09-04T12:00:52.333Z,3.55
2018-09-04T12:03:20.806Z,3.98
2018-09-04T12:05:49.073Z,4.10
2018-09-04T12:08:17.188Z,4.15
2018-09-04T12:10:45.665Z,3.42
2018-09-04T12:13:18.377Z,4.35
2018-09-04T12:15:46.489Z,3.83
2018-09-04T12:18:14.733Z,3.55
2018-09-04T12:20:44.608Z,3.80
2018-09-04T12:23:13.019Z,3.83
2018-09-04T12:25:41.974Z,4.10
2018-09-04T12:28:10.147Z,4.00
2018-09-04T12:30:38.641Z,3.90
2018-09-04T12:33:07.221Z,3.50
2018-09-04T12:35:35.824Z,3.70
2018-09-04T12:38:04.917Z,3.67
2018-09-04T12:40:33.372Z,3.52
2018-09-04T12:43:02.799Z,3.77
2018-09-04T12:45:36.999Z,3.60
2018-09-04T12:48:05.331Z,3.90
2018-09-04T12:50:34.461Z,3.80
2018-09-04T12:53:02.814Z,3.30
2018-09-04T12:55:31.469Z,3.15
2018-09-04T12:58:00.390Z,3.60
2018-09-04T13:00:28.633Z,2.92
2018-09-04T13:02:57.265Z,3.20
2018-09-04T13:05:25.601Z,3.25
2018-09-04T13:07:53.764Z,2.70
2018-09-04T13:10:21.954Z,3.02
2018-09-04T13:12:50.121Z,3.00
2018-09-04T13:15:18.508Z,3.10
2018-09-04T13:17:46.789Z,3.25
2018-09-04T13:20:15.009Z,3.52
2018-09-04T13:22:43.220Z,3.60
2018-09-04T13:25:11.560Z,3.55
2018-09-04T13:27:39.672Z,3.83
2018-09-04T13:30:09.369Z,3.65
2018-09-04T13:32:38.663Z,4.20
2018-09-04T13:35:08.031Z,3.45
2018-09-04T13:37:36.352Z,3.58
2018-09-04T13:40:04.955Z,3.87
2018-09-04T13:42:33.337Z,3.42
2018-09-04T13:45:01.870Z,3.40
2018-09-04T13:47:33.449Z,3.50
2018-09-04T13:50:01.756Z,3.67
2018-09-04T13:52:31.972Z,3.90
2018-09-04T13:55:00.539Z,3.83
2018-09-04T13:57:29.392Z,3.27
2018-09-04T13:59:57.713Z,3.50
2018-09-04T14:02:26.394Z,2.83
2018-09-04T14:04:54.549Z,4.10
2018-09-04T14:07:22.914Z,3.87
2018-09-04T14:09:51.182Z,4.22
2018-09-04T14:12:19.491Z,3.55
2018-09-04T14:17:46.138Z,3.37
2018-09-04T14:20:14.319Z,3.72
2018-09-04T14:22:42.499Z,3.40
2018-09-04T14:25:10.820Z,3.35
2018-09-04T14:27:38.987Z,3.35
2018-09-04T14:30:21.163Z,3.30
2018-09-04T14:32:35.512Z,3.40
2018-09-04T14:35:03.894Z,3.90
2018-09-04T14:37:32.321Z,3.47
2018-09-04T14:40:08.175Z,3.52
2018-09-04T14:42:36.461Z,2.90
2018-09-04T14:45:04.798Z,3.40
2018-09-04T14:47:33.060Z,3.45
2018-09-04T14:50:01.341Z,3.45
2018-09-04T14:52:35.801Z,3.08
2018-09-04T14:55:04.141Z,2.77
2018-09-04T14:57:32.344Z,3.60
2018-09-04T15:00:00.491Z,3.42
2018-09-04T15:02:28.720Z,4.37
2018-09-04T15:04:56.781Z,4.78
2018-09-04T15:07:25.085Z,6.50
2018-09-04T15:09:53.226Z,5.50
2018-09-04T15:12:21.440Z,4.03
2018-09-04T15:14:49.786Z,3.98
2018-09-04T15:17:17.997Z,3.58
2018-09-04T15:19:46.329Z,3.72
2018-09-04T15:22:14.704Z,3.77
2018-09-04T15:24:43.005Z,3.30
2018-09-04T15:27:11.419Z,3.67
2018-09-04T15:29:39.710Z,3.35
2018-09-04T15:32:08.112Z,3.08
2018-09-04T15:34:36.415Z,3.10
2018-09-04T15:37:04.757Z,3.50
2018-09-04T15:39:33.123Z,3.17
2018-09-04T15:42:01.237Z,3.47
2018-09-04T15:44:29.441Z,2.87
2018-09-04T15:46:57.798Z,3.50
2018-09-04T15:49:31.452Z,3.40
2018-09-04T15:51:59.636Z,3.20
2018-09-04T15:54:29.636Z,3.10
2018-09-04T15:56:58.447Z,3.30
2018-09-04T15:59:27.368Z,3.25
2018-09-04T16:01:55.919Z,3.17
2018-09-04T16:04:24.384Z,3.33
2018-09-04T16:06:52.809Z,3.05
2018-09-04T16:09:21.188Z,3.33
2018-09-04T16:11:49.575Z,3.00
2018-09-04T16:14:17.834Z,3.20
2018-09-04T16:16:46.087Z,3.00
2018-09-04T16:19:14.348Z,3.10
2018-09-04T16:21:42.473Z,3.53
2018-09-04T16:24:11.894Z,3.13
2018-09-04T16:26:40.493Z,3.00
2018-09-04T16:29:08.937Z,3.60
2018-09-04T16:31:37.837Z,3.30
2018-09-04T16:34:06.408Z,3.50
2018-09-04T16:36:34.856Z,3.40
2018-09-04T16:39:04.676Z,3.60
2018-09-04T16:41:33.043Z,3.10
2018-09-04T16:44:01.192Z,3.17
2018-09-04T16:46:30.056Z,3.80
2018-09-04T16:48:58.388Z,3.40
2018-09-04T16:51:26.912Z,3.30
2018-09-04T16:53:55.442Z,2.97
2018-09-04T16:56:23.670Z,3.80
2018-09-04T16:58:51.958Z,3.13
2018-09-04T17:01:20.227Z,3.40
2018-09-04T17:03:48.562Z,3.40
2018-09-04T17:06:16.943Z,3.50
2018-09-04T17:08:45.464Z,3.60
2018-09-04T17:11:13.750Z,3.37
2018-09-04T17:13:42.145Z,3.63
2018-09-04T17:16:10.421Z,4.10
2018-09-04T17:18:38.717Z,3.60
2018-09-04T17:21:06.896Z,4.43
2018-09-04T17:23:35.172Z,4.00
2018-09-04T17:26:03.392Z,4.30
2018-09-04T17:28:32.517Z,5.27
2018-09-04T17:31:01.193Z,3.80
2018-09-04T17:33:29.532Z,3.87
2018-09-04T17:35:57.795Z,4.10
2018-09-04T17:38:26.132Z,3.77
2018-09-04T17:40:54.530Z,3.93
2018-09-04T17:43:23.252Z,3.87
2018-09-04T17:45:51.656Z,3.60
2018-09-04T17:48:20.234Z,3.67
2018-09-04T17:50:48.843Z,4.00
2018-09-04T17:53:17.257Z,3.43
2018-09-04T17:55:45.497Z,3.70
2018-09-04T17:58:14.119Z,3.13
2018-09-04T18:00:42.439Z,3.80
2018-09-04T18:03:10.688Z,3.40
2018-09-04T18:05:40.755Z,3.50
2018-09-04T18:08:09.171Z,3.23
2018-09-04T18:10:37.496Z,3.73
2018-09-04T18:13:05.697Z,3.47
2018-09-04T18:15:34.066Z,4.13
2018-09-04T18:18:02.349Z,3.83
2018-09-04T18:20:30.768Z,3.60
2018-09-04T18:22:59.090Z,3.33
2018-09-04T18:25:27.803Z,3.03
2018-09-04T18:27:55.907Z,3.93
2018-09-04T18:30:24.118Z,3.57
2018-09-04T18:32:52.487Z,3.37
2018-09-04T18:35:20.786Z,3.80
2018-09-04T18:37:49.222Z,4.13
2018-09-04T18:40:17.584Z,3.93
2018-09-04T18:42:46.196Z,3.10
2018-09-04T18:45:25.553Z,3.67
2018-09-04T18:47:54.201Z,4.27
2018-09-04T18:50:22.538Z,4.00
2018-09-04T18:52:50.904Z,3.73
2018-09-04T18:55:19.235Z,3.37
2018-09-04T18:57:47.646Z,4.07
2018-09-04T19:00:15.985Z,3.70
2018-09-04T19:02:44.078Z,3.60
2018-09-04T19:05:12.410Z,3.80
2018-09-04T19:07:40.714Z,3.57
2018-09-04T19:10:09.065Z,3.40
2018-09-04T19:12:37.335Z,3.70
2018-09-04T19:15:05.611Z,3.70
2018-09-04T19:18:12.035Z,3.73
2018-09-04T19:20:40.377Z,3.50
2018-09-04T19:23:08.865Z,3.40
2018-09-04T19:25:37.379Z,3.80
2018-09-04T19:28:05.598Z,3.67
2018-09-04T19:30:34.115Z,3.30
2018-09-04T19:33:02.355Z,3.77
2018-09-04T19:35:30.900Z,4.03
2018-09-04T19:37:59.529Z,3.70
2018-09-04T19:40:27.842Z,4.13
2018-09-04T19:42:56.337Z,3.13
2018-09-04T19:45:24.726Z,3.70
2018-09-04T19:47:53.331Z,3.67
2018-09-04T19:50:21.673Z,3.90
2018-09-04T19:52:49.973Z,4.03
2018-09-04T19:55:18.431Z,4.93
2018-09-04T19:57:46.804Z,3.83
2018-09-04T20:00:15.206Z,4.00
2018-09-04T20:02:43.632Z,3.90
2018-09-04T20:05:11.982Z,4.17
2018-09-04T20:07:40.126Z,3.60
2018-09-04T20:10:08.681Z,3.93
2018-09-04T20:12:37.145Z,3.70
2018-09-04T20:15:05.622Z,4.40
2018-09-04T20:17:33.939Z,3.87
2018-09-04T20:20:02.157Z,4.30
2018-09-04T20:22:30.411Z,4.17
2018-09-04T20:24:58.619Z,3.80
2018-09-04T20:27:27.191Z,4.50
2018-09-04T20:29:55.479Z,4.50
2018-09-04T20:32:24.436Z,3.70
2018-09-04T20:34:52.664Z,3.67
2018-09-04T20:37:20.985Z,3.90
2018-09-04T20:39:49.350Z,3.53
2018-09-04T20:42:17.466Z,4.03
2018-09-04T20:44:45.880Z,3.87
2018-09-04T20:47:14.403Z,4.10
2018-09-04T20:49:42.631Z,3.57
2018-09-04T20:52:10.916Z,4.07
2018-09-04T20:54:39.153Z,3.47
2018-09-04T20:57:25.730Z,3.30
2018-09-04T21:00:07.234Z,3.87
2018-09-04T21:02:46.537Z,3.50
2018-09-04T21:05:26.704Z,3.50
2018-09-04T21:08:11.111Z,3.80
2018-09-04T21:10:39.812Z,3.23
2018-09-04T21:13:08.366Z,2.90
2018-09-04T21:15:36.626Z,3.30
2018-09-04T21:18:05.263Z,2.50
2018-09-04T21:20:33.529Z,2.63
2018-09-04T21:23:01.792Z,3.07
2018-09-04T21:25:29.888Z,3.10
2018-09-04T21:27:57.860Z,2.83
2018-09-04T21:30:25.988Z,2.90
2018-09-04T21:32:53.998Z,2.20
2018-09-04T21:35:22.080Z,2.50
2018-09-04T21:37:50.162Z,2.60
2018-09-04T21:40:18.395Z,2.60
2018-09-04T21:42:46.683Z,2.77
2018-09-04T21:45:14.799Z,2.30
2018-09-04T21:47:42.941Z,2.23
2018-09-04T21:50:11.366Z,2.70
2018-09-04T21:52:39.480Z,2.43
2018-09-04T21:55:07.860Z,2.47
2018-09-04T21:57:35.897Z,2.50
2018-09-04T22:00:05.101Z,2.73
2018-09-04T22:02:33.157Z,2.30
2018-09-04T22:05:01.554Z,2.50
2018-09-04T22:07:29.982Z,2.57
2018-09-04T22:09:58.314Z,1.97
2018-09-04T22:12:26.661Z,2.10
2018-09-04T22:14:54.989Z,2.07
2018-09-04T22:17:23.056Z,2.33
2018-09-04T22:19:51.107Z,2.13
2018-09-04T22:22:19.104Z,2.23
2018-09-04T22:24:47.125Z,2.00
2018-09-04T22:27:15.342Z,2.37
2018-09-04T22:29:43.650Z,2.37
2018-09-04T22:32:12.898Z,2.23
2018-09-04T22:34:40.916Z,2.37
2018-09-04T22:37:09.179Z,2.17
2018-09-04T22:39:37.207Z,2.13
2018-09-04T22:42:05.361Z,2.33
2018-09-04T22:44:33.622Z,2.17
2018-09-04T22:47:01.904Z,1.50
2018-09-04T22:49:30.377Z,2.00
2018-09-04T22:51:59.473Z,2.20
2018-09-04T22:54:27.591Z,2.17
2018-09-04T22:56:55.701Z,2.23
2018-09-04T22:59:23.952Z,1.90
2018-09-04T23:01:51.972Z,2.40
2018-09-04T23:04:20.103Z,2.30
2018-09-04T23:06:48.107Z,2.17
2018-09-04T23:09:16.193Z,2.17
2018-09-04T23:11:44.234Z,2.00
2018-09-04T23:14:12.295Z,2.07
2018-09-04T23:16:40.369Z,2.07
2018-09-04T23:19:08.525Z,2.30
2018-09-04T23:21:36.760Z,1.90
2018-09-04T23:24:05.149Z,2.20
2018-09-04T23:26:33.336Z,1.83
2018-09-04T23:29:01.499Z,2.03
2018-09-04T23:31:29.635Z,1.57
2018-09-04T23:33:57.804Z,1.90
2018-09-04T23:36:25.922Z,1.87
2018-09-04T23:38:54.046Z,2.20
2018-09-04T23:41:22.342Z,2.17
2018-09-04T23:43:50.521Z,2.03
2018-09-04T23:46:18.604Z,2.20
2018-09-04T23:48:46.754Z,2.03
2018-09-04T23:51:14.971Z,1.90
2018-09-04T23:53:43.066Z,2.00
2018-09-04T23:56:11.280Z,2.00
2018-09-04T23:58:39.386Z,1.90
